Texas Enterprise — KSDF — position and weather

sailwx.info

Track history (hours):
 
Tides and Currents Weather Stations Pressure Air Temp Water Temp Dewpoint Dewpoint Depression Visibility Wind Speed Wind Dir Waves Ship Positions

Texas Enterprise

Owner: U.S. United Ocean Services, LLC, Tampa, FL. More information available from US FCC via Universal Licensing System and Coast Guard Vessel Documentation Center.

Last reported at 2014-Oct-28 06:33 UTC. Time now 2014-Oct-30 15:18 UTC.
Position N 27°36' W 082°52'.

Type: Cargo ship. MMSI: 366163000.

Date/timePositionNaut miles runAvg speedWind from/ knotsBaromVisibWave heightAir tempDewpointWater temp
2014-Oct-28 06:33N 27°36' W 082°52'1312.8
2014-Oct-28 05:34N 27°38' W 082°37'1212.1
2014-Oct-28 04:33N 27°48' W 082°29'4 3.5
2014-Oct-28 03:30N 27°48' W 082°25'0 0.0
2014-Oct-28 02:33N 27°48' W 082°25'0 0.0
2014-Oct-28 01:34N 27°48' W 082°25'0 0.0
2014-Oct-28 00:33N 27°48' W 082°25'0 0.0
2014-Oct-27 23:33N 27°48' W 082°25'0 0.0
2014-Oct-27 22:33N 27°48' W 082°25'0 0.0
2014-Oct-27 21:33N 27°48' W 082°25'0 0.0
2014-Oct-27 20:33N 27°48' W 082°25'0 0.0
2014-Oct-27 19:33N 27°48' W 082°25'0 0.0
2014-Oct-27 18:33N 27°48' W 082°25'0 0.0
2014-Oct-27 17:33N 27°48' W 082°25'0 0.0
2014-Oct-27 16:33N 27°48' W 082°25'0 0.0
2014-Oct-27 15:33N 27°48' W 082°25'0 0.0
2014-Oct-27 14:33N 27°48' W 082°25'0 0.0
2014-Oct-27 13:33N 27°48' W 082°25'0 0.0
2014-Oct-27 12:33N 27°48' W 082°25'0 0.0
2014-Oct-27 11:33N 27°48' W 082°25'0 0.0
2014-Oct-27 10:33N 27°48' W 082°25'0 0.0
2014-Oct-27 09:33N 27°48' W 082°25'0 0.0
2014-Oct-27 08:33N 27°48' W 082°25'0 0.0
2014-Oct-27 07:33N 27°48' W 082°25'0 0.0
2014-Oct-27 06:33N 27°48' W 082°25'0 0.0
2014-Oct-27 05:33N 27°48' W 082°25'0 0.0
2014-Oct-27 04:33N 27°48' W 082°25'0 0.0
2014-Oct-27 03:33N 27°48' W 082°25'0 0.0
2014-Oct-27 02:33N 27°48' W 082°25'0 0.0
2014-Oct-27 01:33N 27°48' W 082°25'0 0.0
2014-Oct-27 00:33N 27°48' W 082°25'0 0.0
2014-Oct-26 23:33N 27°48' W 082°25'0 0.0
2014-Oct-26 22:33N 27°48' W 082°25'0 0.0
2014-Oct-26 21:33N 27°48' W 082°25'0 0.0
2014-Oct-26 20:33N 27°48' W 082°25'0 0.0
2014-Oct-26 19:33N 27°48' W 082°25'0 0.0
2014-Oct-26 18:33N 27°48' W 082°25'0 0.0
2014-Oct-26 17:33N 27°48' W 082°25'0 0.0
2014-Oct-26 16:33N 27°48' W 082°25'0 0.0
2014-Oct-26 15:33N 27°48' W 082°25'0 0.0
2014-Oct-26 14:33N 27°48' W 082°25'0 0.0
2014-Oct-26 13:33N 27°48' W 082°25'0 0.0
2014-Oct-26 12:33N 27°48' W 082°25'0 0.0
2014-Oct-26 11:33N 27°48' W 082°25'1 1.1
2014-Oct-26 10:33N 27°49' W 082°26'8 8.2
2014-Oct-26 09:33N 27°43' W 082°32'1111.3
2014-Oct-26 08:33N 27°36' W 082°43'1212.2
2014-Oct-26 07:33N 27°36' W 082°57'386 9.4
2014-Oct-24 14:32N 29°37' W 089°53'0 0.0
2014-Oct-24 13:11N 29°37' W 089°53'383 7.4
2014-Oct-22 09:22N 27°36' W 082°59'1214.7
2014-Oct-22 08:34N 27°37' W 082°46'1414.4
2014-Oct-22 07:34N 27°44' W 082°32'8 7.8
2014-Oct-22 06:34N 27°48' W 082°25'0 0.5
2014-Oct-22 05:31N 27°48' W 082°25'0 0.0
2014-Oct-22 04:31N 27°48' W 082°25'0 0.0
2014-Oct-22 03:31N 27°48' W 082°25'0 0.0
2014-Oct-22 02:31N 27°48' W 082°25'0 0.0
2014-Oct-22 01:28N 27°48' W 082°25'0 0.0
2014-Oct-22 00:25N 27°48' W 082°25'0 0.0
2014-Oct-21 23:28N 27°48' W 082°25'0 0.0
2014-Oct-21 22:31N 27°48' W 082°25'0 0.0
2014-Oct-21 21:31N 27°48' W 082°25'0 0.0
2014-Oct-21 20:31N 27°48' W 082°25'0 0.0
2014-Oct-21 19:31N 27°48' W 082°25'0 0.0
2014-Oct-21 18:31N 27°48' W 082°25'0 0.0
2014-Oct-21 17:31N 27°48' W 082°25'0 0.0
2014-Oct-21 16:31N 27°48' W 082°25'0 0.0
2014-Oct-21 15:31N 27°48' W 082°25'0 0.0
2014-Oct-21 14:31N 27°48' W 082°25'0 0.0
2014-Oct-21 13:31N 27°48' W 082°25'0 0.0
2014-Oct-21 12:31N 27°48' W 082°25'0 0.0
2014-Oct-21 11:28N 27°48' W 082°25'0 0.0
2014-Oct-21 10:22N 27°48' W 082°25'0 0.0
2014-Oct-21 09:28N 27°48' W 082°25'0 0.0
2014-Oct-21 08:31N 27°48' W 082°25'0 0.0
2014-Oct-21 07:31N 27°48' W 082°25'0 0.0
2014-Oct-21 06:31N 27°48' W 082°25'0 0.0
2014-Oct-21 05:31N 27°48' W 082°25'0 0.0
2014-Oct-21 04:31N 27°48' W 082°25'0 0.0
2014-Oct-21 03:31N 27°48' W 082°25'0 0.0
2014-Oct-21 02:31N 27°48' W 082°25'0 0.0
2014-Oct-21 01:31N 27°48' W 082°25'0 0.0
2014-Oct-21 00:31N 27°48' W 082°25'0 0.0
2014-Oct-20 23:31N 27°48' W 082°25'0 0.0
2014-Oct-20 22:31N 27°48' W 082°25'0 0.0
2014-Oct-20 21:31N 27°48' W 082°25'2 1.6
2014-Oct-20 20:33N 27°49' W 082°26'9 8.8
2014-Oct-20 19:33N 27°42' W 082°33'1111.4
2014-Oct-20 18:33N 27°36' W 082°44'1110.7
2014-Oct-20 17:33N 27°37' W 082°56'1 0.5
2014-Oct-20 16:31N 27°37' W 082°56'0 0.0
2014-Oct-20 15:28N 27°37' W 082°56'0 0.0
2014-Oct-20 14:31N 27°37' W 082°56'0 0.0
2014-Oct-20 13:31N 27°37' W 082°56'0 0.0
2014-Oct-20 12:31N 27°37' W 082°56'0 0.0
2014-Oct-20 11:31N 27°37' W 082°56'0 0.0
2014-Oct-20 10:31N 27°37' W 082°56'0 0.0
2014-Oct-20 09:31N 27°37' W 082°56'0 0.0
2014-Oct-20 08:31N 27°37' W 082°56'0 0.0
2014-Oct-20 07:31N 27°37' W 082°56'0 0.0
2014-Oct-20 06:31N 27°37' W 082°56'0 0.0
2014-Oct-20 05:31N 27°37' W 082°56'0 0.0
2014-Oct-20 04:31N 27°37' W 082°56'0 0.1
2014-Oct-20 03:31N 27°37' W 082°56'0 0.0
2014-Oct-20 02:31N 27°37' W 082°56'0 0.0
2014-Oct-20 01:31N 27°37' W 082°56'0 0.0
2014-Oct-20 00:31N 27°37' W 082°56'0 0.0
2014-Oct-19 23:31N 27°37' W 082°56'0 0.0
2014-Oct-19 22:31N 27°37' W 082°56'0 0.0
2014-Oct-19 21:31N 27°37' W 082°56'0 0.0
2014-Oct-19 20:31N 27°37' W 082°56'0 0.0
2014-Oct-19 19:31N 27°37' W 082°56'0 0.0
2014-Oct-19 18:31N 27°37' W 082°56'0 0.0
2014-Oct-19 17:28N 27°37' W 082°56'0 0.0
2014-Oct-19 16:31N 27°37' W 082°56'0 0.0
2014-Oct-19 15:31N 27°37' W 082°56'0 0.0
2014-Oct-19 14:31N 27°37' W 082°56'0 0.0
2014-Oct-19 13:31N 27°37' W 082°56'0 0.0
2014-Oct-19 12:31N 27°37' W 082°56'0 0.0
2014-Oct-19 11:31N 27°37' W 082°56'0 0.0
2014-Oct-19 10:28N 27°37' W 082°56'0 0.0
2014-Oct-19 09:31N 27°37' W 082°56'0 0.0
2014-Oct-19 08:31N 27°37' W 082°56'0 0.0
2014-Oct-19 07:31N 27°37' W 082°56'0 0.0
2014-Oct-19 06:31N 27°37' W 082°56'0 0.0
2014-Oct-19 05:31N 27°37' W 082°56'0 0.0
2014-Oct-19 04:31N 27°37' W 082°56'0 0.0
2014-Oct-19 03:31N 27°37' W 082°56'0 0.0
2014-Oct-19 02:31N 27°37' W 082°56'0 0.0
2014-Oct-19 01:31N 27°37' W 082°56'0 0.0
2014-Oct-19 00:31N 27°37' W 082°56'0 0.0
2014-Oct-18 23:31N 27°37' W 082°56'0 0.0
2014-Oct-18 22:28N 27°37' W 082°56'0 0.1
2014-Oct-18 21:31N 27°37' W 082°56'0 0.1
2014-Oct-18 20:31N 27°37' W 082°56'0 0.0
2014-Oct-18 19:31N 27°37' W 082°56'0 0.0
2014-Oct-18 18:28N 27°37' W 082°56'0 0.0
2014-Oct-18 17:31N 27°37' W 082°56'0 0.0
2014-Oct-18 16:31N 27°37' W 082°56'0 0.0
2014-Oct-18 15:31N 27°37' W 082°56'0 0.0
2014-Oct-18 14:25N 27°37' W 082°56'0 0.0
2014-Oct-18 13:25N 27°37' W 082°56'0 0.0
2014-Oct-18 12:28N 27°37' W 082°56'0 0.0
2014-Oct-18 11:31N 27°37' W 082°56'0 0.0
2014-Oct-18 10:31N 27°37' W 082°56'0 0.0
2014-Oct-18 09:31N 27°37' W 082°56'0 0.1
2014-Oct-18 08:31N 27°37' W 082°56'0 0.0
2014-Oct-18 07:31N 27°37' W 082°56'  
Track history (hours):
 
Tides and Currents Weather Stations Pressure Air Temp Water Temp Dewpoint Dewpoint Depression Visibility Wind Speed Wind Dir Waves Ship Positions

Texas Enterprise

Owner: U.S. United Ocean Services, LLC, Tampa, FL. More information available from US FCC via Universal Licensing System and Coast Guard Vessel Documentation Center.

Last reported at 2014-Oct-28 06:33 UTC. Time now 2014-Oct-30 15:18 UTC.
Position N 27°36' W 082°52'.

Type: Cargo ship. MMSI: 366163000.

Date/timePositionNaut miles runAvg speedWind from/ knotsBaromVisibWave heightAir tempDewpointWater temp
2014-Oct-28 06:33N 27°36' W 082°52'1312.8
2014-Oct-28 05:34N 27°38' W 082°37'1212.1
2014-Oct-28 04:33N 27°48' W 082°29'4 3.5
2014-Oct-28 03:30N 27°48' W 082°25'0 0.0
2014-Oct-28 02:33N 27°48' W 082°25'0 0.0
2014-Oct-28 01:34N 27°48' W 082°25'0 0.0
2014-Oct-28 00:33N 27°48' W 082°25'0 0.0
2014-Oct-27 23:33N 27°48' W 082°25'0 0.0
2014-Oct-27 22:33N 27°48' W 082°25'0 0.0
2014-Oct-27 21:33N 27°48' W 082°25'0 0.0
2014-Oct-27 20:33N 27°48' W 082°25'0 0.0
2014-Oct-27 19:33N 27°48' W 082°25'0 0.0
2014-Oct-27 18:33N 27°48' W 082°25'0 0.0
2014-Oct-27 17:33N 27°48' W 082°25'0 0.0
2014-Oct-27 16:33N 27°48' W 082°25'0 0.0
2014-Oct-27 15:33N 27°48' W 082°25'0 0.0
2014-Oct-27 14:33N 27°48' W 082°25'0 0.0
2014-Oct-27 13:33N 27°48' W 082°25'0 0.0
2014-Oct-27 12:33N 27°48' W 082°25'0 0.0
2014-Oct-27 11:33N 27°48' W 082°25'0 0.0
2014-Oct-27 10:33N 27°48' W 082°25'0 0.0
2014-Oct-27 09:33N 27°48' W 082°25'0 0.0
2014-Oct-27 08:33N 27°48' W 082°25'0 0.0
2014-Oct-27 07:33N 27°48' W 082°25'0 0.0
2014-Oct-27 06:33N 27°48' W 082°25'0 0.0
2014-Oct-27 05:33N 27°48' W 082°25'0 0.0
2014-Oct-27 04:33N 27°48' W 082°25'0 0.0
2014-Oct-27 03:33N 27°48' W 082°25'0 0.0
2014-Oct-27 02:33N 27°48' W 082°25'0 0.0
2014-Oct-27 01:33N 27°48' W 082°25'0 0.0
2014-Oct-27 00:33N 27°48' W 082°25'0 0.0
2014-Oct-26 23:33N 27°48' W 082°25'0 0.0
2014-Oct-26 22:33N 27°48' W 082°25'0 0.0
2014-Oct-26 21:33N 27°48' W 082°25'0 0.0
2014-Oct-26 20:33N 27°48' W 082°25'0 0.0
2014-Oct-26 19:33N 27°48' W 082°25'0 0.0
2014-Oct-26 18:33N 27°48' W 082°25'0 0.0
2014-Oct-26 17:33N 27°48' W 082°25'0 0.0
2014-Oct-26 16:33N 27°48' W 082°25'0 0.0
2014-Oct-26 15:33N 27°48' W 082°25'0 0.0
2014-Oct-26 14:33N 27°48' W 082°25'0 0.0
2014-Oct-26 13:33N 27°48' W 082°25'0 0.0
2014-Oct-26 12:33N 27°48' W 082°25'0 0.0
2014-Oct-26 11:33N 27°48' W 082°25'1 1.1
2014-Oct-26 10:33N 27°49' W 082°26'8 8.2
2014-Oct-26 09:33N 27°43' W 082°32'1111.3
2014-Oct-26 08:33N 27°36' W 082°43'1212.2
2014-Oct-26 07:33N 27°36' W 082°57'386 9.4
2014-Oct-24 14:32N 29°37' W 089°53'0 0.0
2014-Oct-24 13:11N 29°37' W 089°53'383 7.4
2014-Oct-22 09:22N 27°36' W 082°59'1214.7
2014-Oct-22 08:34N 27°37' W 082°46'1414.4
2014-Oct-22 07:34N 27°44' W 082°32'8 7.8
2014-Oct-22 06:34N 27°48' W 082°25'0 0.5
2014-Oct-22 05:31N 27°48' W 082°25'0 0.0
2014-Oct-22 04:31N 27°48' W 082°25'0 0.0
2014-Oct-22 03:31N 27°48' W 082°25'0 0.0
2014-Oct-22 02:31N 27°48' W 082°25'0 0.0
2014-Oct-22 01:28N 27°48' W 082°25'0 0.0
2014-Oct-22 00:25N 27°48' W 082°25'0 0.0
2014-Oct-21 23:28N 27°48' W 082°25'0 0.0
2014-Oct-21 22:31N 27°48' W 082°25'0 0.0
2014-Oct-21 21:31N 27°48' W 082°25'0 0.0
2014-Oct-21 20:31N 27°48' W 082°25'0 0.0
2014-Oct-21 19:31N 27°48' W 082°25'0 0.0
2014-Oct-21 18:31N 27°48' W 082°25'0 0.0
2014-Oct-21 17:31N 27°48' W 082°25'0 0.0
2014-Oct-21 16:31N 27°48' W 082°25'0 0.0
2014-Oct-21 15:31N 27°48' W 082°25'0 0.0
2014-Oct-21 14:31N 27°48' W 082°25'0 0.0
2014-Oct-21 13:31N 27°48' W 082°25'0 0.0
2014-Oct-21 12:31N 27°48' W 082°25'0 0.0
2014-Oct-21 11:28N 27°48' W 082°25'0 0.0
2014-Oct-21 10:22N 27°48' W 082°25'0 0.0
2014-Oct-21 09:28N 27°48' W 082°25'0 0.0
2014-Oct-21 08:31N 27°48' W 082°25'0 0.0
2014-Oct-21 07:31N 27°48' W 082°25'0 0.0
2014-Oct-21 06:31N 27°48' W 082°25'0 0.0
2014-Oct-21 05:31N 27°48' W 082°25'0 0.0
2014-Oct-21 04:31N 27°48' W 082°25'0 0.0
2014-Oct-21 03:31N 27°48' W 082°25'0 0.0
2014-Oct-21 02:31N 27°48' W 082°25'0 0.0
2014-Oct-21 01:31N 27°48' W 082°25'0 0.0
2014-Oct-21 00:31N 27°48' W 082°25'0 0.0
2014-Oct-20 23:31N 27°48' W 082°25'0 0.0
2014-Oct-20 22:31N 27°48' W 082°25'0 0.0
2014-Oct-20 21:31N 27°48' W 082°25'2 1.6
2014-Oct-20 20:33N 27°49' W 082°26'9 8.8
2014-Oct-20 19:33N 27°42' W 082°33'1111.4
2014-Oct-20 18:33N 27°36' W 082°44'1110.7
2014-Oct-20 17:33N 27°37' W 082°56'1 0.5
2014-Oct-20 16:31N 27°37' W 082°56'0 0.0
2014-Oct-20 15:28N 27°37' W 082°56'0 0.0
2014-Oct-20 14:31N 27°37' W 082°56'0 0.0
2014-Oct-20 13:31N 27°37' W 082°56'0 0.0
2014-Oct-20 12:31N 27°37' W 082°56'0 0.0
2014-Oct-20 11:31N 27°37' W 082°56'0 0.0
2014-Oct-20 10:31N 27°37' W 082°56'0 0.0
2014-Oct-20 09:31N 27°37' W 082°56'0 0.0
2014-Oct-20 08:31N 27°37' W 082°56'0 0.0
2014-Oct-20 07:31N 27°37' W 082°56'0 0.0
2014-Oct-20 06:31N 27°37' W 082°56'0 0.0
2014-Oct-20 05:31N 27°37' W 082°56'0 0.0
2014-Oct-20 04:31N 27°37' W 082°56'0 0.1
2014-Oct-20 03:31N 27°37' W 082°56'0 0.0
2014-Oct-20 02:31N 27°37' W 082°56'0 0.0
2014-Oct-20 01:31N 27°37' W 082°56'0 0.0
2014-Oct-20 00:31N 27°37' W 082°56'0 0.0
2014-Oct-19 23:31N 27°37' W 082°56'0 0.0
2014-Oct-19 22:31N 27°37' W 082°56'0 0.0
2014-Oct-19 21:31N 27°37' W 082°56'0 0.0
2014-Oct-19 20:31N 27°37' W 082°56'0 0.0
2014-Oct-19 19:31N 27°37' W 082°56'0 0.0
2014-Oct-19 18:31N 27°37' W 082°56'0 0.0
2014-Oct-19 17:28N 27°37' W 082°56'0 0.0
2014-Oct-19 16:31N 27°37' W 082°56'0 0.0
2014-Oct-19 15:31N 27°37' W 082°56'0 0.0
2014-Oct-19 14:31N 27°37' W 082°56'0 0.0
2014-Oct-19 13:31N 27°37' W 082°56'0 0.0
2014-Oct-19 12:31N 27°37' W 082°56'0 0.0
2014-Oct-19 11:31N 27°37' W 082°56'0 0.0
2014-Oct-19 10:28N 27°37' W 082°56'0 0.0
2014-Oct-19 09:31N 27°37' W 082°56'0 0.0
2014-Oct-19 08:31N 27°37' W 082°56'0 0.0
2014-Oct-19 07:31N 27°37' W 082°56'0 0.0
2014-Oct-19 06:31N 27°37' W 082°56'0 0.0
2014-Oct-19 05:31N 27°37' W 082°56'0 0.0
2014-Oct-19 04:31N 27°37' W 082°56'0 0.0
2014-Oct-19 03:31N 27°37' W 082°56'0 0.0
2014-Oct-19 02:31N 27°37' W 082°56'0 0.0
2014-Oct-19 01:31N 27°37' W 082°56'0 0.0
2014-Oct-19 00:31N 27°37' W 082°56'0 0.0
2014-Oct-18 23:31N 27°37' W 082°56'0 0.0
2014-Oct-18 22:28N 27°37' W 082°56'0 0.1
2014-Oct-18 21:31N 27°37' W 082°56'0 0.1
2014-Oct-18 20:31N 27°37' W 082°56'0 0.0
2014-Oct-18 19:31N 27°37' W 082°56'0 0.0
2014-Oct-18 18:28N 27°37' W 082°56'0 0.0
2014-Oct-18 17:31N 27°37' W 082°56'0 0.0
2014-Oct-18 16:31N 27°37' W 082°56'0 0.0
2014-Oct-18 15:31N 27°37' W 082°56'0 0.0
2014-Oct-18 14:25N 27°37' W 082°56'0 0.0
2014-Oct-18 13:25N 27°37' W 082°56'0 0.0
2014-Oct-18 12:28N 27°37' W 082°56'0 0.0
2014-Oct-18 11:31N 27°37' W 082°56'0 0.0
2014-Oct-18 10:31N 27°37' W 082°56'0 0.0
2014-Oct-18 09:31N 27°37' W 082°56'0 0.1
2014-Oct-18 08:31N 27°37' W 082°56'0 0.0
2014-Oct-18 07:31N 27°37' W 082°56'  

Dump ship's entire track history